createdAt,value
2018-04-07T00:01:17.515Z,74.27
2018-04-07T00:02:18.091Z,74.18
2018-04-07T00:03:18.649Z,73.41
2018-04-07T00:04:19.190Z,73.41
2018-04-07T00:05:19.739Z,73.66
2018-04-07T00:06:20.279Z,73.99
2018-04-07T00:07:20.831Z,73.95
2018-04-07T00:08:21.382Z,73.85
2018-04-07T00:09:21.927Z,73.95
2018-04-07T00:10:22.478Z,74.04
2018-04-07T00:11:23.017Z,73.89
2018-04-07T00:12:23.562Z,74.24
2018-04-07T00:13:24.112Z,74.24
2018-04-07T00:14:24.668Z,74.99
2018-04-07T00:15:25.215Z,75.19
2018-04-07T00:16:25.758Z,75.09
2018-04-07T00:17:26.304Z,75.76
2018-04-07T00:18:26.851Z,76.14
2018-04-07T00:19:27.398Z,76.04
2018-04-07T00:20:27.942Z,76.14
2018-04-07T00:21:28.488Z,76.81
2018-04-07T00:22:29.028Z,76.71
2018-04-07T00:23:29.583Z,76.52
2018-04-07T00:24:30.123Z,76.14
2018-04-07T00:25:30.672Z,76.04
2018-04-07T00:26:31.223Z,76.52
2018-04-07T00:27:31.762Z,76.61
2018-04-07T00:28:32.316Z,76.61
2018-04-07T00:29:32.859Z,76.52
2018-04-07T00:30:33.405Z,76.04
2018-04-07T00:31:33.950Z,76.52
2018-04-07T00:32:34.494Z,76.33
2018-04-07T00:33:35.032Z,77.00
2018-04-07T00:34:35.573Z,76.52
2018-04-07T00:35:36.119Z,76.71
2018-04-07T00:36:36.662Z,76.71
2018-04-07T00:37:37.214Z,76.71
2018-04-07T00:38:37.759Z,76.23
2018-04-07T00:39:38.298Z,76.48
2018-04-07T00:40:38.853Z,76.33
2018-04-07T00:41:39.512Z,76.33
2018-04-07T00:42:40.061Z,76.33
2018-04-07T00:43:40.598Z,75.85
2018-04-07T00:44:41.148Z,76.23
2018-04-07T00:45:41.699Z,76.61
2018-04-07T00:46:42.235Z,76.23
2018-04-07T00:47:42.781Z,76.23
2018-04-07T00:48:43.322Z,76.71
2018-04-07T00:49:43.867Z,77.37
2018-04-07T00:50:44.409Z,77.43
2018-04-07T00:51:44.951Z,77.24
2018-04-07T00:52:45.494Z,77.43
2018-04-07T00:53:46.034Z,77.56
2018-04-07T00:54:46.581Z,77.53
2018-04-07T00:55:47.130Z,77.37
2018-04-07T00:56:47.667Z,77.34
2018-04-07T00:57:48.219Z,77.43
2018-04-07T00:58:48.760Z,77.37
2018-04-07T00:59:49.304Z,77.37
2018-04-07T01:00:49.855Z,77.28
2018-04-07T01:01:50.396Z,76.81
2018-04-07T01:02:50.944Z,77.47
2018-04-07T01:03:51.491Z,76.81
2018-04-07T01:04:52.038Z,76.90
2018-04-07T01:05:52.590Z,77.00
2018-04-07T01:06:53.135Z,76.90
2018-04-07T01:07:53.685Z,77.00
2018-04-07T01:08:54.228Z,76.42
2018-04-07T01:09:54.777Z,75.95
2018-04-07T01:10:55.331Z,76.33
2018-04-07T01:11:55.871Z,76.04
2018-04-07T01:12:56.422Z,76.04
2018-04-07T01:13:56.963Z,76.33
2018-04-07T01:14:57.509Z,76.04
2018-04-07T01:15:58.053Z,76.23
2018-04-07T01:16:58.607Z,76.04
2018-04-07T01:17:59.157Z,76.61
2018-04-07T01:18:59.715Z,76.04
2018-04-07T01:20:00.249Z,76.04
2018-04-07T01:21:00.791Z,76.14
2018-04-07T01:22:01.331Z,75.85
2018-04-07T01:23:01.884Z,76.04
2018-04-07T01:24:02.434Z,76.42
2018-04-07T01:25:02.971Z,76.14
2018-04-07T01:26:03.522Z,75.85
2018-04-07T01:27:04.064Z,76.14
2018-04-07T01:28:04.606Z,75.95
2018-04-07T01:29:05.156Z,76.14
2018-04-07T01:30:05.703Z,76.14
2018-04-07T01:31:06.242Z,76.04
2018-04-07T01:32:06.776Z,76.33
2018-04-07T01:33:07.324Z,76.14
2018-04-07T01:34:07.877Z,76.52
2018-04-07T01:35:08.418Z,76.52
2018-04-07T01:36:08.967Z,76.61
2018-04-07T01:37:09.520Z,76.33
2018-04-07T01:38:10.054Z,76.42
2018-04-07T01:39:10.602Z,76.23
2018-04-07T01:40:11.154Z,76.23
2018-04-07T01:41:11.694Z,76.61
2018-04-07T01:42:12.240Z,76.42
2018-04-07T01:43:12.787Z,76.52
2018-04-07T01:44:13.340Z,76.81
2018-04-07T01:45:13.880Z,76.71
2018-04-07T01:46:14.428Z,77.19
2018-04-07T01:47:14.971Z,76.81
2018-04-07T01:48:15.521Z,76.52
2018-04-07T01:49:16.058Z,76.23
2018-04-07T01:50:16.612Z,76.52
2018-04-07T01:51:17.148Z,77.00
2018-04-07T01:52:17.691Z,76.90
2018-04-07T01:53:18.241Z,76.71
2018-04-07T01:54:18.789Z,76.61
2018-04-07T01:55:19.328Z,76.61
2018-04-07T01:56:19.876Z,77.00
2018-04-07T01:57:20.412Z,76.81
2018-04-07T01:58:20.956Z,77.09
2018-04-07T01:59:21.504Z,77.37
2018-04-07T02:00:22.055Z,77.37
2018-04-07T02:01:22.599Z,77.56
2018-04-07T02:02:23.144Z,77.37
2018-04-07T02:03:23.682Z,77.37
2018-04-07T02:04:24.226Z,77.37
2018-04-07T02:05:24.771Z,77.56
2018-04-07T02:06:25.315Z,77.28
2018-04-07T02:07:25.855Z,77.76
2018-04-07T02:08:26.402Z,77.47
2018-04-07T02:09:26.951Z,77.76
2018-04-07T02:10:27.495Z,78.33
2018-04-07T02:11:28.040Z,78.33
2018-04-07T02:12:28.586Z,78.19
2018-04-07T02:13:29.132Z,78.23
2018-04-07T02:14:29.679Z,78.48
2018-04-07T02:15:30.228Z,78.61
2018-04-07T02:16:30.765Z,78.67
2018-04-07T02:17:31.317Z,78.48
2018-04-07T02:18:31.857Z,77.85
2018-04-07T02:19:32.408Z,78.14
2018-04-07T02:20:32.960Z,78.10
2018-04-07T02:21:33.502Z,78.04
2018-04-07T02:22:34.046Z,78.23
2018-04-07T02:23:34.594Z,78.14
2018-04-07T02:24:35.140Z,77.95
2018-04-07T02:25:35.681Z,78.04
2018-04-07T02:26:36.231Z,78.23
2018-04-07T02:27:36.778Z,78.04
2018-04-07T02:28:37.328Z,77.85
2018-04-07T02:29:37.874Z,78.33
2018-04-07T02:30:38.414Z,78.33
2018-04-07T02:31:38.953Z,78.38
2018-04-07T02:32:39.491Z,78.04
2018-04-07T02:33:40.036Z,77.95
2018-04-07T02:34:40.585Z,77.56
2018-04-07T02:35:41.124Z,77.47
2018-04-07T02:36:41.664Z,77.85
2018-04-07T02:37:42.212Z,77.85
2018-04-07T02:38:42.756Z,78.14
2018-04-07T02:39:43.296Z,78.23
2018-04-07T02:40:43.843Z,78.14
2018-04-07T02:41:44.392Z,77.95
2018-04-07T02:42:44.937Z,78.04
2018-04-07T02:43:45.489Z,78.23
2018-04-07T02:44:46.029Z,78.33
2018-04-07T02:45:46.576Z,78.14
2018-04-07T02:46:47.116Z,78.04
2018-04-07T02:47:47.661Z,78.14
2018-04-07T02:48:48.200Z,78.04
2018-04-07T02:49:48.749Z,78.57
2018-04-07T02:50:49.294Z,78.29
2018-04-07T02:51:49.834Z,78.48
2018-04-07T02:52:50.382Z,78.10
2018-04-07T02:53:50.920Z,78.29
2018-04-07T02:54:51.468Z,78.57
2018-04-07T02:55:52.012Z,78.86
2018-04-07T02:56:52.555Z,78.77
2018-04-07T02:57:53.105Z,78.67
2018-04-07T02:58:53.651Z,78.57
2018-04-07T02:59:54.191Z,79.05
2018-04-07T03:00:54.732Z,78.67
2018-04-07T03:01:55.277Z,78.99
2018-04-07T03:02:55.825Z,78.77
2018-04-07T03:03:56.367Z,79.14
2018-04-07T03:04:56.910Z,79.05
2018-04-07T03:05:57.463Z,79.05
2018-04-07T03:06:58.003Z,79.52
2018-04-07T03:07:58.546Z,79.43
2018-04-07T03:08:59.105Z,79.14
2018-04-07T03:09:59.638Z,79.43
2018-04-07T03:11:00.182Z,79.52
2018-04-07T03:12:00.722Z,79.24
2018-04-07T03:13:01.265Z,79.62
2018-04-07T03:14:01.802Z,79.43
2018-04-07T03:15:02.344Z,79.33
2018-04-07T03:16:02.906Z,79.43
2018-04-07T03:17:03.442Z,79.43
2018-04-07T03:18:03.981Z,78.86
2018-04-07T03:19:04.529Z,79.43
2018-04-07T03:20:05.074Z,79.24
2018-04-07T03:21:05.618Z,79.24
2018-04-07T03:22:06.154Z,79.14
2018-04-07T03:23:06.706Z,79.43
2018-04-07T03:24:07.243Z,80.00
2018-04-07T03:25:07.787Z,79.72
2018-04-07T03:26:08.333Z,79.33
2018-04-07T03:27:08.873Z,79.24
2018-04-07T03:28:09.423Z,79.52
2018-04-07T03:29:09.970Z,78.86
2018-04-07T03:30:10.519Z,79.24
2018-04-07T03:31:11.080Z,79.24
2018-04-07T03:32:11.607Z,79.24
2018-04-07T03:33:12.158Z,79.52
2018-04-07T03:34:12.703Z,79.62
2018-04-07T03:35:13.249Z,79.72
2018-04-07T03:36:13.797Z,80.10
2018-04-07T03:37:14.349Z,80.29
2018-04-07T03:38:14.886Z,80.38
2018-04-07T03:39:15.435Z,80.57
2018-04-07T03:40:15.981Z,80.57
2018-04-07T03:41:16.524Z,81.14
2018-04-07T03:42:17.060Z,81.43
2018-04-07T03:43:17.607Z,81.14
2018-04-07T03:44:18.153Z,81.14
2018-04-07T03:45:18.697Z,81.52
2018-04-07T03:46:19.239Z,81.33
2018-04-07T03:47:19.794Z,80.86
2018-04-07T03:48:20.337Z,80.57
2018-04-07T03:49:20.883Z,80.47
2018-04-07T03:50:21.431Z,80.95
2018-04-07T03:51:21.982Z,80.57
2018-04-07T03:52:22.530Z,80.57
2018-04-07T03:53:23.074Z,80.38
2018-04-07T03:54:23.620Z,80.57
2018-04-07T03:55:24.162Z,80.57
2018-04-07T03:56:24.707Z,80.47
2018-04-07T03:57:25.246Z,80.57
2018-04-07T03:58:25.794Z,80.76
2018-04-07T03:59:26.330Z,80.53
2018-04-07T04:00:26.876Z,80.86
2018-04-07T04:01:27.475Z,81.38
2018-04-07T04:02:28.031Z,81.24
2018-04-07T04:03:28.573Z,81.20
2018-04-07T04:04:29.119Z,81.38
2018-04-07T04:05:29.668Z,81.58
2018-04-07T04:06:30.220Z,81.86
2018-04-07T04:07:30.763Z,81.77
2018-04-07T04:08:31.307Z,81.86
2018-04-07T04:09:31.850Z,81.96
2018-04-07T04:10:32.392Z,82.15
2018-04-07T04:11:32.932Z,82.71
2018-04-07T04:12:33.483Z,82.34
2018-04-07T04:13:34.032Z,82.05
2018-04-07T04:14:34.573Z,82.15
2018-04-07T04:15:35.116Z,82.15
2018-04-07T04:16:35.659Z,82.15
2018-04-07T04:17:36.205Z,82.15
2018-04-07T04:18:36.748Z,82.15
2018-04-07T04:19:37.287Z,82.05
2018-04-07T04:20:37.844Z,81.48
2018-04-07T04:21:38.370Z,81.77
2018-04-07T04:22:38.922Z,81.86
2018-04-07T04:23:39.467Z,81.86
2018-04-07T04:24:40.007Z,81.67
2018-04-07T04:25:40.552Z,81.86
2018-04-07T04:26:41.091Z,82.15
2018-04-07T04:27:41.636Z,82.34
2018-04-07T04:28:42.180Z,82.15
2018-04-07T04:29:42.728Z,82.62
2018-04-07T04:30:43.276Z,82.62
2018-04-07T04:31:43.826Z,82.71
2018-04-07T04:32:44.367Z,82.43
2018-04-07T04:33:44.914Z,82.71
2018-04-07T04:34:45.458Z,82.43
2018-04-07T04:35:45.999Z,82.81
2018-04-07T04:36:46.543Z,82.71
2018-04-07T04:37:47.095Z,82.71
2018-04-07T04:38:47.640Z,83.00
2018-04-07T04:39:48.183Z,83.48
2018-04-07T04:40:48.728Z,83.67
2018-04-07T04:41:49.270Z,83.48
2018-04-07T04:42:49.821Z,83.58
2018-04-07T04:43:50.365Z,83.39
2018-04-07T04:44:50.906Z,84.14
2018-04-07T04:45:51.451Z,83.76
2018-04-07T04:46:52.000Z,83.76
2018-04-07T04:47:52.551Z,83.58
2018-04-07T04:48:53.098Z,83.67
2018-04-07T04:49:53.648Z,83.67
2018-04-07T04:50:54.193Z,84.05
2018-04-07T04:51:54.739Z,84.33
2018-04-07T04:52:55.289Z,84.33
2018-04-07T04:53:55.838Z,84.43
2018-04-07T04:54:56.378Z,84.05
2018-04-07T04:55:56.928Z,84.33
2018-04-07T04:56:57.469Z,84.24
2018-04-07T04:57:58.021Z,83.95
2018-04-07T04:58:58.567Z,83.58
2018-04-07T04:59:59.117Z,84.05
2018-04-07T05:00:59.668Z,83.67
2018-04-07T05:02:00.216Z,83.67
2018-04-07T05:03:00.759Z,83.95
2018-04-07T05:04:01.307Z,83.76
2018-04-07T05:05:01.858Z,84.05
2018-04-07T05:06:02.404Z,83.76
2018-04-07T05:07:02.954Z,83.48
2018-04-07T05:08:03.496Z,83.00
2018-04-07T05:09:04.047Z,82.53
2018-04-07T05:10:04.595Z,82.71
2018-04-07T05:11:05.192Z,83.19
2018-04-07T05:12:05.790Z,83.19
2018-04-07T05:13:06.330Z,83.39
2018-04-07T05:14:06.881Z,82.91
2018-04-07T05:15:07.436Z,82.43
2018-04-07T05:16:07.983Z,82.57
2018-04-07T05:17:08.539Z,82.38
2018-04-07T05:18:09.091Z,82.19
2018-04-07T05:19:09.631Z,81.71
2018-04-07T05:20:10.189Z,81.71
2018-04-07T05:21:10.733Z,82.00
2018-04-07T05:22:11.340Z,82.19
2018-04-07T05:23:11.848Z,81.81
2018-04-07T05:24:12.379Z,81.90
2018-04-07T05:25:12.939Z,81.71
2018-04-07T05:26:13.485Z,81.90
2018-04-07T05:27:14.043Z,81.90
2018-04-07T05:28:14.590Z,81.90
2018-04-07T05:29:15.144Z,81.62
2018-04-07T05:30:15.701Z,81.52
2018-04-07T05:31:16.252Z,81.62
2018-04-07T05:32:16.798Z,81.33
2018-04-07T05:33:17.350Z,81.24
2018-04-07T05:34:17.893Z,81.05
2018-04-07T05:35:18.448Z,80.80
2018-04-07T05:36:19.012Z,80.90
2018-04-07T05:37:19.559Z,79.75
2018-04-07T05:38:20.119Z,79.85
2018-04-07T05:39:20.678Z,79.70
2018-04-07T05:40:21.225Z,78.75
2018-04-07T05:41:21.784Z,78.94
2018-04-07T05:42:22.338Z,77.36
2018-04-07T05:43:22.897Z,76.79
2018-04-07T05:44:23.455Z,76.03
2018-04-07T05:45:24.013Z,75.93
2018-04-07T05:46:24.571Z,75.55
2018-04-07T05:47:25.123Z,75.45
2018-04-07T05:48:25.677Z,75.68
2018-04-07T05:49:26.232Z,75.11
2018-04-07T05:50:26.793Z,74.82
2018-04-07T05:51:27.349Z,74.54
2018-04-07T05:52:27.907Z,73.68
2018-04-07T05:53:28.465Z,73.43
2018-04-07T05:54:29.025Z,72.67
2018-04-07T05:55:29.585Z,72.86
2018-04-07T05:56:30.142Z,72.48
2018-04-07T05:57:30.702Z,72.19
2018-04-07T05:58:31.263Z,72.96
2018-04-07T05:59:31.824Z,72.19
2018-04-07T06:00:32.385Z,72.28
2018-04-07T06:01:32.944Z,71.72
2018-04-07T06:02:33.505Z,71.52
2018-04-07T06:03:34.067Z,71.33
2018-04-07T06:04:34.630Z,71.14
2018-04-07T06:05:35.186Z,71.43
2018-04-07T06:06:35.751Z,71.94
2018-04-07T06:07:36.307Z,71.94
2018-04-07T06:08:36.869Z,71.18
2018-04-07T06:09:37.435Z,70.16
2018-04-07T06:10:37.997Z,69.87
2018-04-07T06:11:38.557Z,69.87
2018-04-07T06:12:39.124Z,69.31
2018-04-07T06:13:39.686Z,68.73
2018-04-07T06:14:40.242Z,68.54
2018-04-07T06:15:40.804Z,68.44
2018-04-07T06:16:41.367Z,68.63
2018-04-07T06:17:41.927Z,68.48
2018-04-07T06:18:42.486Z,67.87
2018-04-07T06:19:43.046Z,67.87
2018-04-07T06:20:43.604Z,68.63
2018-04-07T06:21:44.168Z,68.92
2018-04-07T06:22:44.779Z,68.98
2018-04-07T06:23:45.307Z,69.97
2018-04-07T06:24:45.873Z,69.11
2018-04-07T06:25:46.433Z,68.86
2018-04-07T06:26:47.000Z,67.81
2018-04-07T06:27:47.564Z,67.14
2018-04-07T06:28:48.133Z,66.95
2018-04-07T06:29:48.674Z,67.24
2018-04-07T06:30:49.236Z,67.71
2018-04-07T06:31:49.792Z,68.10
2018-04-07T06:32:50.353Z,67.71
2018-04-07T06:33:50.914Z,67.71
2018-04-07T06:34:51.485Z,68.00
2018-04-07T06:35:52.035Z,68.29
2018-04-07T06:36:52.599Z,67.43
2018-04-07T06:37:53.153Z,67.33
2018-04-07T06:38:53.716Z,68.00
2018-04-07T06:39:54.280Z,67.62
2018-04-07T06:40:54.844Z,67.08
2018-04-07T06:41:55.407Z,66.89
2018-04-07T06:42:55.976Z,67.08
2018-04-07T06:43:56.533Z,67.08
2018-04-07T06:44:57.165Z,66.70
2018-04-07T06:45:57.727Z,67.08
2018-04-07T06:46:58.287Z,66.89
2018-04-07T06:47:58.854Z,66.35
2018-04-07T06:48:59.415Z,65.87
2018-04-07T06:49:59.983Z,65.14
2018-04-07T06:51:00.545Z,65.23
2018-04-07T06:52:01.108Z,64.66
2018-04-07T06:53:01.676Z,64.43
2018-04-07T06:54:02.242Z,64.75
2018-04-07T06:55:02.859Z,65.14
2018-04-07T06:56:03.371Z,64.47
2018-04-07T06:57:03.942Z,64.56
2018-04-07T06:58:04.506Z,64.56
2018-04-07T06:59:05.069Z,63.83
2018-04-07T07:00:05.637Z,64.02
2018-04-07T07:01:06.204Z,62.97
2018-04-07T07:02:06.772Z,63.51
2018-04-07T07:03:07.337Z,63.48
2018-04-07T07:04:07.904Z,64.72
2018-04-07T07:05:08.477Z,65.39
2018-04-07T07:06:09.042Z,65.39
2018-04-07T07:07:09.601Z,65.45
2018-04-07T07:08:10.162Z,65.87
2018-04-07T07:09:10.727Z,66.06
2018-04-07T07:10:11.290Z,66.25
2018-04-07T07:11:11.874Z,66.06
2018-04-07T07:12:12.420Z,65.87
2018-04-07T07:13:12.976Z,66.35
2018-04-07T07:14:13.537Z,66.03
2018-04-07T07:15:14.096Z,66.63
2018-04-07T07:16:14.656Z,66.92
2018-04-07T07:17:15.219Z,66.86
2018-04-07T07:18:15.786Z,66.03
2018-04-07T07:19:16.385Z,64.59
2018-04-07T07:20:16.906Z,64.02
2018-04-07T07:21:17.472Z,63.51
2018-04-07T07:22:18.056Z,63.80
2018-04-07T07:23:18.617Z,64.05
2018-04-07T07:24:19.184Z,64.28
2018-04-07T07:25:19.738Z,64.75
2018-04-07T07:26:20.298Z,64.56
2018-04-07T07:27:20.865Z,64.47
2018-04-07T07:28:21.427Z,65.04
2018-04-07T07:29:21.992Z,65.33
2018-04-07T07:30:22.560Z,65.17
2018-04-07T07:31:23.126Z,64.69
2018-04-07T07:32:23.690Z,64.40
2018-04-07T07:33:24.263Z,63.89
2018-04-07T07:34:24.814Z,64.47
2018-04-07T07:35:25.373Z,64.69
2018-04-07T07:36:25.941Z,65.04
2018-04-07T07:37:26.501Z,64.75
2018-04-07T07:38:27.065Z,65.26
2018-04-07T07:39:27.625Z,66.00
2018-04-07T07:40:28.192Z,65.42
2018-04-07T07:41:28.752Z,66.16
2018-04-07T07:42:29.313Z,67.11
2018-04-07T07:43:29.878Z,67.05
2018-04-07T07:44:30.439Z,66.19
2018-04-07T07:45:31.002Z,67.21
2018-04-07T07:46:31.568Z,67.49
2018-04-07T07:47:32.114Z,67.21
2018-04-07T07:48:32.676Z,67.53
2018-04-07T07:49:33.236Z,67.72
2018-04-07T07:50:33.799Z,67.24
2018-04-07T07:51:34.362Z,66.76
2018-04-07T07:52:34.921Z,66.70
2018-04-07T07:53:35.485Z,67.08
2018-04-07T07:54:36.047Z,66.03
2018-04-07T07:55:36.612Z,65.94
2018-04-07T07:56:37.177Z,66.06
2018-04-07T07:57:37.738Z,66.06
2018-04-07T07:58:38.308Z,66.06
2018-04-07T07:59:38.870Z,65.88
2018-04-07T08:00:39.437Z,65.30
2018-04-07T08:01:40.000Z,65.26
2018-04-07T08:02:40.560Z,66.54
2018-04-07T08:03:41.116Z,66.25
2018-04-07T08:04:41.681Z,65.20
2018-04-07T08:05:42.250Z,65.30
2018-04-07T08:06:42.808Z,65.58
2018-04-07T08:07:43.374Z,65.39
2018-04-07T08:08:43.939Z,64.92
2018-04-07T08:09:44.504Z,65.20
2018-04-07T08:10:45.064Z,65.39
2018-04-07T08:11:45.634Z,65.91
2018-04-07T08:12:46.197Z,64.37
2018-04-07T08:13:46.764Z,64.50
2018-04-07T08:14:47.329Z,64.12
2018-04-07T08:15:47.893Z,64.02
2018-04-07T08:16:48.461Z,63.92
2018-04-07T08:17:49.023Z,63.64
2018-04-07T08:18:49.588Z,64.69
2018-04-07T08:19:50.155Z,64.05
2018-04-07T08:20:50.776Z,63.76
2018-04-07T08:21:51.286Z,64.63
2018-04-07T08:22:51.856Z,63.86
2018-04-07T08:23:52.428Z,64.37
2018-04-07T08:24:52.994Z,65.23
2018-04-07T08:25:53.558Z,63.42
2018-04-07T08:26:54.134Z,62.96
2018-04-07T08:27:54.703Z,62.19
2018-04-07T08:28:55.262Z,61.30
2018-04-07T08:29:55.852Z,61.52
2018-04-07T08:30:56.392Z,61.81
2018-04-07T08:31:56.958Z,60.92
2018-04-07T08:32:57.526Z,61.30
2018-04-07T08:33:58.087Z,62.26
2018-04-07T08:34:58.654Z,62.16
2018-04-07T08:35:59.215Z,61.88
2018-04-07T08:36:59.779Z,61.30
2018-04-07T08:38:00.341Z,61.30
2018-04-07T08:39:00.898Z,62.45
2018-04-07T08:40:01.460Z,62.84
2018-04-07T08:41:02.026Z,62.26
2018-04-07T08:42:02.591Z,61.56
2018-04-07T08:43:03.155Z,62.23
2018-04-07T08:44:03.724Z,62.90
2018-04-07T08:45:04.291Z,63.38
2018-04-07T08:46:04.855Z,63.09
2018-04-07T08:47:05.425Z,63.06
2018-04-07T08:48:06.081Z,62.96
2018-04-07T08:49:06.655Z,62.49
2018-04-07T08:50:07.226Z,62.62
2018-04-07T08:51:07.829Z,62.30
2018-04-07T08:52:08.343Z,62.59
2018-04-07T08:53:08.914Z,62.62
2018-04-07T08:54:09.462Z,62.20
2018-04-07T08:55:10.028Z,62.62
2018-04-07T08:56:10.596Z,62.39
2018-04-07T08:57:11.164Z,63.00
2018-04-07T08:58:11.730Z,63.00
2018-04-07T08:59:12.295Z,62.42
2018-04-07T09:00:12.862Z,63.38
2018-04-07T09:01:13.428Z,63.00
2018-04-07T09:02:13.987Z,62.81
2018-04-07T09:03:14.553Z,62.71
2018-04-07T09:04:15.120Z,63.19
2018-04-07T09:05:15.679Z,62.62
2018-04-07T09:06:16.241Z,62.42
2018-04-07T09:07:16.800Z,62.52
2018-04-07T09:08:17.358Z,62.93
2018-04-07T09:09:17.932Z,62.07
2018-04-07T09:10:18.511Z,61.62
2018-04-07T09:11:19.079Z,61.30
2018-04-07T09:12:19.682Z,60.85
2018-04-07T09:13:20.201Z,61.33
2018-04-07T09:14:20.766Z,60.28
2018-04-07T09:15:21.370Z,59.99
2018-04-07T09:16:21.909Z,59.99
2018-04-07T09:17:22.498Z,59.96
2018-04-07T09:18:23.031Z,60.28
2018-04-07T09:19:23.610Z,60.18
2018-04-07T09:20:24.172Z,61.05
2018-04-07T09:21:24.732Z,60.25
2018-04-07T09:22:25.296Z,60.92
2018-04-07T09:23:25.859Z,61.21
2018-04-07T09:24:26.430Z,61.40
2018-04-07T09:25:26.989Z,61.05
2018-04-07T09:26:27.560Z,60.95
2018-04-07T09:27:28.126Z,60.75
2018-04-07T09:28:28.689Z,60.75
2018-04-07T09:29:29.243Z,61.14
2018-04-07T09:30:29.806Z,60.88
2018-04-07T09:31:30.373Z,61.08
2018-04-07T09:32:30.934Z,60.40
2018-04-07T09:33:31.501Z,60.88
2018-04-07T09:34:32.062Z,59.83
2018-04-07T09:35:32.628Z,59.64
2018-04-07T09:36:33.192Z,59.83
2018-04-07T09:37:33.757Z,60.50
2018-04-07T09:38:34.326Z,60.50
2018-04-07T09:39:34.893Z,60.18
2018-04-07T09:40:35.457Z,60.88
2018-04-07T09:41:36.023Z,60.31
2018-04-07T09:42:36.583Z,60.31
2018-04-07T09:43:37.152Z,60.11
2018-04-07T09:44:37.742Z,59.19
2018-04-07T09:45:38.299Z,59.86
2018-04-07T09:46:38.869Z,58.80
2018-04-07T09:47:39.435Z,59.12
2018-04-07T09:48:40.010Z,59.02
2018-04-07T09:49:40.572Z,58.18
2018-04-07T09:50:41.146Z,57.68
2018-04-07T09:51:41.707Z,57.97
2018-04-07T09:52:42.265Z,58.67
2018-04-07T09:53:42.833Z,58.54
2018-04-07T09:54:43.398Z,57.51
2018-04-07T09:55:43.961Z,57.03
2018-04-07T09:56:44.531Z,57.70
2018-04-07T09:57:45.097Z,57.60
2018-04-07T09:58:45.666Z,57.60
2018-04-07T09:59:46.237Z,57.60
2018-04-07T10:00:46.802Z,57.90
2018-04-07T10:01:47.371Z,57.54
2018-04-07T10:02:47.939Z,56.48
2018-04-07T10:03:48.509Z,56.77
2018-04-07T10:04:49.077Z,56.99
2018-04-07T10:05:49.633Z,57.28
2018-04-07T10:06:50.197Z,56.54
2018-04-07T10:07:50.768Z,55.45
2018-04-07T10:08:51.333Z,56.12
2018-04-07T10:09:51.953Z,56.15
2018-04-07T10:10:52.470Z,56.63
2018-04-07T10:11:53.042Z,56.54
2018-04-07T10:12:53.734Z,55.38
2018-04-07T10:13:54.305Z,55.77
2018-04-07T10:14:54.894Z,55.09
2018-04-07T10:15:55.452Z,55.96
2018-04-07T10:16:56.012Z,57.02
2018-04-07T10:17:56.583Z,57.69
2018-04-07T10:18:57.203Z,56.99
2018-04-07T10:19:57.779Z,56.38
2018-04-07T10:20:58.327Z,56.48
2018-04-07T10:21:58.884Z,57.35
2018-04-07T10:22:59.450Z,56.60
2018-04-07T10:24:00.019Z,55.62
2018-04-07T10:25:00.651Z,55.65
2018-04-07T10:26:01.195Z,55.77
2018-04-07T10:27:01.760Z,56.27
2018-04-07T10:28:02.330Z,56.09
2018-04-07T10:29:02.895Z,55.70
2018-04-07T10:30:03.459Z,55.60
2018-04-07T10:31:04.021Z,55.51
2018-04-07T10:32:04.585Z,54.16
2018-04-07T10:33:05.169Z,54.76
2018-04-07T10:34:05.750Z,53.89
2018-04-07T10:35:06.292Z,53.89
2018-04-07T10:36:06.863Z,54.18
2018-04-07T10:37:07.439Z,52.93
2018-04-07T10:38:08.006Z,54.57
2018-04-07T10:39:08.570Z,54.40
2018-04-07T10:40:09.150Z,54.28
2018-04-07T10:41:09.689Z,54.47
2018-04-07T10:42:10.251Z,54.47
2018-04-07T10:43:10.840Z,54.57
2018-04-07T10:44:11.394Z,53.89
2018-04-07T10:45:11.971Z,53.70
2018-04-07T10:46:12.553Z,54.57
2018-04-07T10:47:13.106Z,54.98
2018-04-07T10:48:13.670Z,54.18
2018-04-07T10:49:14.230Z,54.60
2018-04-07T10:50:14.809Z,54.24
2018-04-07T10:51:15.375Z,53.47
2018-04-07T10:52:15.944Z,52.98
2018-04-07T10:53:16.507Z,54.14
2018-04-07T10:54:17.119Z,54.46
2018-04-07T10:55:17.656Z,54.10
2018-04-07T10:56:18.219Z,53.91
2018-04-07T10:57:18.792Z,52.23
2018-04-07T10:58:19.354Z,52.33
2018-04-07T10:59:19.924Z,52.91
2018-04-07T11:00:20.487Z,53.03
2018-04-07T11:01:21.077Z,53.33
2018-04-07T11:02:21.658Z,53.25
2018-04-07T11:03:22.260Z,52.89
2018-04-07T11:04:22.816Z,52.27
2018-04-07T11:05:23.359Z,51.20
2018-04-07T11:06:23.925Z,49.97
2018-04-07T11:07:24.496Z,48.90
2018-04-07T11:08:25.060Z,48.69
2018-04-07T11:09:25.629Z,48.76
2018-04-07T11:10:26.196Z,48.49
2018-04-07T11:11:26.803Z,48.11
2018-04-07T11:12:27.323Z,47.99
2018-04-07T11:13:27.890Z,48.88
2018-04-07T11:14:28.463Z,48.32
2018-04-07T11:29:19.054Z,49.10
2018-04-07T11:30:19.619Z,48.13
2018-04-07T11:31:20.188Z,49.58
2018-04-07T11:32:20.762Z,49.22
2018-04-07T11:33:21.326Z,49.02
2018-04-07T11:34:21.891Z,48.85
2018-04-07T11:35:22.478Z,47.79
2018-04-07T11:36:23.049Z,46.55
2018-04-07T11:37:23.622Z,46.16
2018-04-07T11:38:24.189Z,46.84
2018-04-07T11:39:24.749Z,46.65
2018-04-07T11:40:25.324Z,46.01
2018-04-07T11:41:25.892Z,45.94
2018-04-07T11:42:26.459Z,45.38
2018-04-07T11:43:27.083Z,43.34
2018-04-07T11:44:27.648Z,44.41
2018-04-07T11:45:28.221Z,42.56
2018-04-07T11:46:28.786Z,41.80
2018-04-07T11:47:29.354Z,41.13
2018-04-07T11:48:29.924Z,40.54
2018-04-07T11:49:30.485Z,41.03
2018-04-07T11:50:31.061Z,40.25
2018-04-07T11:51:31.631Z,40.34
2018-04-07T11:52:32.205Z,40.08
2018-04-07T11:53:32.765Z,39.88
2018-04-07T11:54:33.338Z,39.69
2018-04-07T11:55:33.902Z,39.41
2018-04-07T11:56:34.479Z,38.83
2018-04-07T11:57:35.040Z,38.75
2018-04-07T11:58:35.618Z,38.59
2018-04-07T11:59:36.189Z,38.10
2018-04-07T12:00:36.747Z,38.22
2018-04-07T12:01:37.362Z,37.71
2018-04-07T12:02:37.891Z,37.93
2018-04-07T12:03:38.468Z,37.37
2018-04-07T12:04:39.029Z,37.37
2018-04-07T12:05:39.594Z,37.45
2018-04-07T12:06:40.169Z,37.83
2018-04-07T12:07:40.730Z,37.46
2018-04-07T12:08:41.301Z,37.65
2018-04-07T12:09:41.869Z,37.25
2018-04-07T12:10:42.441Z,37.73
2018-04-07T12:11:43.032Z,36.86
2018-04-07T12:12:43.580Z,36.68
2018-04-07T12:13:44.148Z,37.37
2018-04-07T12:29:50.220Z,35.39
2018-04-07T12:30:50.788Z,35.78
2018-04-07T12:31:51.350Z,35.90
2018-04-07T12:32:51.917Z,36.47
2018-04-07T12:33:52.541Z,37.37
2018-04-07T12:34:53.058Z,36.39
2018-04-07T12:35:53.622Z,35.71
2018-04-07T12:36:54.187Z,35.53
2018-04-07T12:37:54.755Z,36.13
2018-04-07T12:38:55.333Z,36.44
2018-04-07T12:39:55.896Z,35.27
2018-04-07T12:40:56.468Z,35.16
2018-04-07T12:41:57.035Z,35.64
2018-04-07T12:42:57.616Z,34.75
2018-04-07T12:43:58.176Z,35.55
2018-04-07T12:44:58.737Z,35.25
2018-04-07T12:45:59.308Z,35.35
2018-04-07T12:46:59.881Z,35.16
2018-04-07T12:48:00.451Z,35.16
2018-04-07T12:49:01.023Z,35.56
2018-04-07T12:50:01.599Z,34.38
2018-04-07T12:51:02.174Z,34.29
2018-04-07T12:52:02.739Z,34.50
2018-04-07T12:53:03.314Z,34.11
2018-04-07T12:54:03.886Z,33.94
2018-04-07T12:55:04.458Z,33.94
2018-04-07T12:56:05.033Z,34.05
2018-04-07T12:57:05.602Z,33.75
2018-04-07T12:58:06.207Z,33.75
2018-04-07T12:59:06.744Z,34.16
2018-04-07T13:00:07.321Z,33.46
2018-04-07T13:01:07.889Z,34.05
2018-04-07T13:19:44.886Z,33.79
2018-04-07T13:20:45.460Z,33.22
2018-04-07T13:21:46.027Z,33.31
2018-04-07T13:22:46.598Z,32.73
2018-04-07T13:23:47.174Z,31.84
2018-04-07T13:24:47.740Z,31.63
2018-04-07T13:25:48.314Z,31.94
2018-04-07T13:26:48.890Z,32.15
2018-04-07T13:27:49.459Z,31.86
2018-04-07T13:28:50.033Z,31.84
2018-04-07T13:29:50.600Z,32.04
2018-04-07T13:30:51.174Z,31.86
2018-04-07T13:31:51.744Z,31.76
2018-04-07T13:32:52.309Z,32.66
2018-04-07T13:33:52.887Z,30.68
2018-04-07T13:34:53.456Z,30.65
2018-04-07T13:35:54.027Z,31.83
2018-04-07T13:36:54.596Z,31.83
2018-04-07T13:37:55.169Z,31.74
2018-04-07T13:38:55.741Z,31.44
2018-04-07T13:39:56.311Z,31.54
2018-04-07T13:40:56.881Z,31.74
2018-04-07T13:41:57.456Z,31.16
2018-04-07T13:42:58.027Z,31.17
2018-04-07T13:43:58.594Z,30.99
2018-04-07T13:44:59.168Z,30.87
2018-04-07T13:45:59.733Z,31.35
2018-04-07T13:47:00.302Z,31.73